createdAt,value
2022-10-13T00:01:19.529Z,100609.53
2022-10-13T00:04:22.399Z,100611.00
2022-10-13T00:07:26.428Z,100606.13
2022-10-13T00:10:29.457Z,100609.50
2022-10-13T00:13:33.220Z,100611.25
2022-10-13T00:16:36.277Z,100611.50
2022-10-13T00:19:38.983Z,100616.44
2022-10-13T00:22:41.912Z,100605.19
2022-10-13T00:25:47.099Z,100612.94
2022-10-13T00:28:52.778Z,100618.88
2022-10-13T00:31:55.835Z,100608.84
2022-10-13T00:34:58.925Z,100608.59
2022-10-13T00:38:01.643Z,100616.03
2022-10-13T00:41:07.294Z,100620.56
2022-10-13T00:44:47.998Z,100615.84
2022-10-13T00:47:57.253Z,100616.22
2022-10-13T00:51:00.000Z,100611.62
2022-10-13T00:54:04.032Z,100604.97
2022-10-13T00:57:08.244Z,100600.34
2022-10-13T01:00:12.304Z,100600.38
2022-10-13T01:03:15.491Z,100601.66
2022-10-13T01:06:23.404Z,100599.00
2022-10-13T01:09:26.686Z,100599.03
2022-10-13T01:12:43.189Z,100606.84
2022-10-13T01:16:04.242Z,100601.75
2022-10-13T01:19:34.746Z,100596.31
2022-10-13T01:22:52.524Z,100601.47
2022-10-13T01:26:20.262Z,100603.56
2022-10-13T01:29:28.759Z,100600.84
2022-10-13T01:32:34.538Z,100600.41
2022-10-13T01:36:00.178Z,100590.31
2022-10-13T01:39:03.102Z,100592.69
2022-10-13T01:42:13.220Z,100588.75
2022-10-13T01:45:18.377Z,100593.47
2022-10-13T01:48:21.522Z,100593.81
2022-10-13T01:51:27.848Z,100591.09
2022-10-13T01:54:30.644Z,100583.72
2022-10-13T01:57:42.076Z,100591.56
2022-10-13T02:01:06.647Z,100580.69
2022-10-13T02:04:21.889Z,100581.94
2022-10-13T02:07:30.214Z,100585.56
2022-10-13T02:11:02.051Z,100568.50
2022-10-13T02:14:12.924Z,100575.22
2022-10-13T02:17:16.547Z,100570.94
2022-10-13T02:20:21.032Z,100569.81
2022-10-13T02:23:24.874Z,100575.16
2022-10-13T02:26:27.871Z,100577.34
2022-10-13T02:29:52.431Z,100576.16
2022-10-13T02:32:55.253Z,100576.88
2022-10-13T02:35:58.214Z,100572.56
2022-10-13T02:39:00.969Z,100579.09
2022-10-13T02:42:04.289Z,100571.63
2022-10-13T02:45:07.701Z,100568.53
2022-10-13T02:48:10.732Z,100580.13
2022-10-13T02:51:13.508Z,100574.03
2022-10-13T02:54:16.604Z,100572.22
2022-10-13T02:57:19.356Z,100571.78
2022-10-13T03:00:24.204Z,100568.66
2022-10-13T03:03:26.913Z,100558.91
2022-10-13T03:06:29.990Z,100561.22
2022-10-13T03:09:33.142Z,100558.09
2022-10-13T03:12:36.188Z,100564.12
2022-10-13T03:15:39.409Z,100567.13
2022-10-13T03:18:45.674Z,100567.56
2022-10-13T03:21:48.612Z,100560.97
2022-10-13T03:24:52.032Z,100564.50
2022-10-13T03:27:55.827Z,100565.53
2022-10-13T03:31:03.453Z,100559.34
2022-10-13T03:34:06.338Z,100559.72
2022-10-13T03:37:09.729Z,100558.94
2022-10-13T03:40:13.183Z,100553.00
2022-10-13T03:43:16.542Z,100552.13
2022-10-13T03:46:19.276Z,100559.47
2022-10-13T03:49:22.532Z,100554.63
2022-10-13T03:52:25.025Z,100551.03
2022-10-13T03:55:27.952Z,100552.53
2022-10-13T03:58:30.516Z,100556.13
2022-10-13T04:01:33.977Z,100557.56
2022-10-13T04:04:38.383Z,100553.50
2022-10-13T04:07:41.120Z,100544.84
2022-10-13T04:10:58.734Z,100554.31
2022-10-13T04:14:01.419Z,100553.38
2022-10-13T04:17:04.773Z,100547.00
2022-10-13T04:20:08.096Z,100541.87
2022-10-13T04:23:12.376Z,100546.66
2022-10-13T04:26:20.574Z,100547.44
2022-10-13T04:29:24.256Z,100536.09
2022-10-13T04:32:28.882Z,100549.56
2022-10-13T04:35:31.990Z,100558.59
2022-10-13T04:38:35.870Z,100560.00
2022-10-13T04:41:38.895Z,100559.50
2022-10-13T04:44:42.058Z,100559.72
2022-10-13T04:47:47.414Z,100557.22
2022-10-13T04:51:00.455Z,100557.44
2022-10-13T04:54:05.704Z,100551.56
2022-10-13T04:57:09.527Z,100555.41
2022-10-13T05:00:13.170Z,100552.72
2022-10-13T05:03:15.987Z,100560.47
2022-10-13T05:06:21.768Z,100552.78
2022-10-13T05:09:25.091Z,100549.34
2022-10-13T05:12:28.336Z,100555.94
2022-10-13T05:15:31.062Z,100558.97
2022-10-13T05:18:34.522Z,100559.88
2022-10-13T05:21:37.268Z,100558.78
2022-10-13T05:24:40.987Z,100555.06
2022-10-13T05:27:45.290Z,100562.56
2022-10-13T05:30:48.304Z,100561.12
2022-10-13T05:33:52.324Z,100563.72
2022-10-13T05:36:56.432Z,100561.81
2022-10-13T05:39:59.064Z,100558.97
2022-10-13T05:43:04.282Z,100563.31
2022-10-13T05:46:07.920Z,100569.75
2022-10-13T05:49:12.230Z,100570.94
2022-10-13T05:52:15.013Z,100570.31
2022-10-13T05:55:18.895Z,100579.75
2022-10-13T05:58:22.890Z,100575.94
2022-10-13T06:01:27.148Z,100579.16
2022-10-13T06:04:32.630Z,100579.31
2022-10-13T06:07:36.007Z,100585.66
2022-10-13T06:10:39.228Z,100590.44
2022-10-13T06:13:41.939Z,100590.69
2022-10-13T06:16:44.929Z,100590.00
2022-10-13T06:19:47.776Z,100582.34
2022-10-13T06:22:51.196Z,100581.75
2022-10-13T06:25:55.376Z,100587.22
2022-10-13T06:28:59.697Z,100579.84
2022-10-13T06:32:03.087Z,100581.69
2022-10-13T06:35:06.585Z,100590.16
2022-10-13T06:38:09.957Z,100589.50
2022-10-13T06:41:14.503Z,100589.69
2022-10-13T06:44:17.515Z,100598.50
2022-10-13T06:47:20.567Z,100600.97
2022-10-13T06:50:23.804Z,100590.09
2022-10-13T06:53:27.034Z,100591.91
2022-10-13T06:56:30.263Z,100596.75
2022-10-13T06:59:34.465Z,100597.34
2022-10-13T07:02:41.767Z,100595.16
2022-10-13T07:05:45.434Z,100594.13
2022-10-13T07:08:48.203Z,100604.97
2022-10-13T07:11:52.073Z,100612.97
2022-10-13T07:14:55.006Z,100599.75
2022-10-13T07:17:58.069Z,100605.88
2022-10-13T07:21:01.881Z,100601.09
2022-10-13T07:24:05.575Z,100602.03
2022-10-13T07:27:08.335Z,100601.38
2022-10-13T07:30:12.802Z,100605.69
2022-10-13T07:33:16.037Z,100599.59
2022-10-13T07:36:19.645Z,100595.84
2022-10-13T07:39:22.404Z,100602.53
2022-10-13T07:42:25.417Z,100600.09
2022-10-13T07:45:28.869Z,100597.44
2022-10-13T07:48:36.935Z,100598.91
2022-10-13T07:51:39.763Z,100594.97
2022-10-13T07:54:44.719Z,100596.31
2022-10-13T07:57:47.566Z,100592.53
2022-10-13T08:00:59.561Z,100597.81
2022-10-13T08:04:02.805Z,100589.81
2022-10-13T08:07:06.305Z,100581.66
2022-10-13T08:10:09.809Z,100581.66
2022-10-13T08:13:12.992Z,100577.69
2022-10-13T08:16:17.299Z,100580.59
2022-10-13T08:19:22.302Z,100578.00
2022-10-13T08:22:28.257Z,100574.16
2022-10-13T08:25:31.335Z,100568.53
2022-10-13T08:28:34.719Z,100579.78
2022-10-13T08:31:37.754Z,100574.09
2022-10-13T08:34:41.140Z,100565.66
2022-10-13T08:37:43.885Z,100568.75
2022-10-13T08:40:50.710Z,100557.91
2022-10-13T08:44:59.212Z,100564.16
2022-10-13T08:47:35.915Z,100555.16
2022-10-13T08:50:42.056Z,100547.41
2022-10-13T08:53:46.669Z,100544.28
2022-10-13T08:56:51.179Z,100550.16
2022-10-13T08:59:54.070Z,100540.75
2022-10-13T09:03:05.828Z,100539.22
2022-10-13T09:06:17.205Z,100546.59
2022-10-13T09:09:20.028Z,100532.50
2022-10-13T09:12:25.409Z,100541.84
2022-10-13T09:15:28.586Z,100548.09
2022-10-13T09:18:33.069Z,100544.53
2022-10-13T09:21:35.958Z,100541.84
2022-10-13T09:24:39.207Z,100547.25
2022-10-13T09:27:55.149Z,100544.63
2022-10-13T09:31:13.252Z,100539.84
2022-10-13T09:34:24.434Z,100550.06
2022-10-13T09:37:28.652Z,100544.97
2022-10-13T09:40:32.470Z,100544.53
2022-10-13T09:43:38.544Z,100541.69
2022-10-13T09:46:52.454Z,100534.69
2022-10-13T09:50:07.641Z,100536.28
2022-10-13T09:53:16.686Z,100532.66
2022-10-13T09:56:24.206Z,100533.09
2022-10-13T09:59:41.749Z,100524.41
2022-10-13T10:02:56.956Z,100523.59
2022-10-13T10:06:01.074Z,100517.94
2022-10-13T10:09:18.877Z,100517.63
2022-10-13T10:12:27.668Z,100518.09
2022-10-13T10:15:43.836Z,100517.91
2022-10-13T10:18:58.768Z,100508.03
2022-10-13T10:22:19.620Z,100507.66
2022-10-13T10:25:49.884Z,100509.59
2022-10-13T10:29:10.939Z,100499.53
2022-10-13T10:32:50.991Z,100499.59
2022-10-13T10:36:38.386Z,100491.72
2022-10-13T10:40:11.888Z,100486.38
2022-10-13T10:43:37.690Z,100490.44
2022-10-13T10:46:46.945Z,100483.97
2022-10-13T10:49:51.343Z,100476.31
2022-10-13T10:53:01.706Z,100479.56
2022-10-13T10:56:42.570Z,100471.16
2022-10-13T11:00:00.335Z,100465.53
2022-10-13T11:03:35.092Z,100460.53
2022-10-13T11:06:38.636Z,100453.22
2022-10-13T11:09:41.324Z,100454.34
2022-10-13T11:12:53.325Z,100445.38
2022-10-13T11:15:56.298Z,100445.88
2022-10-13T11:19:08.876Z,100440.41
2022-10-13T11:22:17.188Z,100435.56
2022-10-13T11:25:46.385Z,100441.56
2022-10-13T11:28:50.886Z,100429.91
2022-10-13T11:31:55.348Z,100421.38
2022-10-13T11:35:04.673Z,100428.13
2022-10-13T11:38:22.490Z,100426.03
2022-10-13T11:41:30.481Z,100420.53
2022-10-13T11:44:59.567Z,100423.84
2022-10-13T11:48:12.257Z,100425.28
2022-10-13T11:51:23.245Z,100414.81
2022-10-13T11:54:31.055Z,100401.47
2022-10-13T11:57:34.092Z,100409.28
2022-10-13T12:00:38.074Z,100401.06
2022-10-13T12:03:43.625Z,100396.59
2022-10-13T12:06:48.700Z,100395.88
2022-10-13T12:09:57.343Z,100388.84
2022-10-13T12:13:03.025Z,100388.78
2022-10-13T12:16:07.161Z,100391.72
2022-10-13T12:19:20.182Z,100385.97
2022-10-13T12:22:23.498Z,100380.28
2022-10-13T12:25:29.003Z,100373.25
2022-10-13T12:29:12.791Z,100363.94
2022-10-13T12:32:26.480Z,100370.16
2022-10-13T12:35:34.290Z,100360.44
2022-10-13T12:38:37.374Z,100367.03
2022-10-13T12:41:43.621Z,100360.75
2022-10-13T12:44:46.979Z,100370.91
2022-10-13T12:47:52.628Z,100363.03
2022-10-13T12:50:55.550Z,100369.41
2022-10-13T12:53:58.575Z,100358.22
2022-10-13T12:57:05.511Z,100355.47
2022-10-13T13:00:21.033Z,100361.06
2022-10-13T13:03:28.844Z,100345.50
2022-10-13T13:06:37.129Z,100350.56
2022-10-13T13:09:41.273Z,100354.00
2022-10-13T13:12:45.755Z,100347.41
2022-10-13T13:15:51.223Z,100335.66
2022-10-13T13:18:54.213Z,100339.00
2022-10-13T13:21:58.162Z,100341.13
2022-10-13T13:25:01.400Z,100340.91
2022-10-13T13:28:05.368Z,100344.25
2022-10-13T13:31:09.601Z,100333.56
2022-10-13T13:34:12.212Z,100331.47
2022-10-13T13:37:31.211Z,100325.50
2022-10-13T13:40:34.528Z,100322.37
2022-10-13T13:43:38.548Z,100321.09
2022-10-13T13:46:42.251Z,100320.00
2022-10-13T13:49:45.746Z,100317.56
2022-10-13T13:52:48.506Z,100320.00
2022-10-13T13:55:52.285Z,100310.88
2022-10-13T13:58:54.999Z,100306.31
2022-10-13T14:01:58.098Z,100310.47
2022-10-13T14:05:02.808Z,100310.09
2022-10-13T14:08:05.635Z,100307.97
2022-10-13T14:11:09.318Z,100302.41
2022-10-13T14:14:12.125Z,100301.78
2022-10-13T14:17:15.135Z,100297.53
2022-10-13T14:20:19.107Z,100304.22
2022-10-13T14:23:22.084Z,100299.47
2022-10-13T14:26:25.445Z,100300.22
2022-10-13T14:29:28.435Z,100300.50
2022-10-13T14:32:31.225Z,100296.97
2022-10-13T14:35:34.264Z,100295.72
2022-10-13T14:38:38.668Z,100298.84
2022-10-13T14:41:42.307Z,100296.84
2022-10-13T14:44:45.318Z,100299.31
2022-10-13T14:47:48.486Z,100296.97
2022-10-13T14:50:51.174Z,100293.81
2022-10-13T14:53:54.194Z,100295.13
2022-10-13T14:56:56.940Z,100286.66
2022-10-13T15:00:02.236Z,100287.09
2022-10-13T15:03:06.478Z,100292.41
2022-10-13T15:06:14.322Z,100295.34
2022-10-13T15:09:18.169Z,100283.28
2022-10-13T15:12:21.582Z,100282.97
2022-10-13T15:15:24.890Z,100287.78
2022-10-13T15:18:29.435Z,100286.06
2022-10-13T15:21:32.323Z,100285.97
2022-10-13T15:24:36.170Z,100290.41
2022-10-13T15:27:42.099Z,100299.66
2022-10-13T15:30:45.886Z,100293.31
2022-10-13T15:33:52.176Z,100286.88
2022-10-13T15:36:56.639Z,100287.50
2022-10-13T15:39:59.535Z,100291.63
2022-10-13T15:43:02.622Z,100279.00
2022-10-13T15:46:08.758Z,100283.28
2022-10-13T15:49:11.776Z,100283.19
2022-10-13T15:52:14.620Z,100275.50
2022-10-13T15:55:18.098Z,100272.56
2022-10-13T15:58:20.920Z,100271.03
2022-10-13T16:01:24.230Z,100272.38
2022-10-13T16:04:29.739Z,100270.69
2022-10-13T16:07:35.490Z,100271.25
2022-10-13T16:10:41.629Z,100273.91
2022-10-13T16:13:47.104Z,100278.03
2022-10-13T16:16:51.109Z,100279.62
2022-10-13T16:19:53.835Z,100284.66
2022-10-13T16:22:57.876Z,100275.63
2022-10-13T16:26:02.461Z,100276.88
2022-10-13T16:29:06.499Z,100277.28
2022-10-13T16:32:09.330Z,100279.69
2022-10-13T16:35:12.477Z,100271.84
2022-10-13T16:38:15.879Z,100278.16
2022-10-13T16:41:18.954Z,100282.50
2022-10-13T16:44:21.720Z,100281.72
2022-10-13T16:47:24.965Z,100275.09
2022-10-13T16:50:27.916Z,100284.47
2022-10-13T16:53:31.229Z,100275.91
2022-10-13T16:56:34.104Z,100287.22
2022-10-13T16:59:37.128Z,100276.72
2022-10-13T17:02:39.920Z,100273.56
2022-10-13T17:05:43.425Z,100270.47
2022-10-13T17:08:46.888Z,100274.75
2022-10-13T17:11:50.066Z,100276.69
2022-10-13T17:14:53.381Z,100282.16
2022-10-13T17:17:56.719Z,100275.13
2022-10-13T17:21:01.398Z,100285.25
2022-10-13T17:24:05.022Z,100277.47
2022-10-13T17:27:08.090Z,100275.09
2022-10-13T17:30:12.049Z,100277.44
2022-10-13T17:33:15.561Z,100274.34
2022-10-13T17:36:21.756Z,100278.22
2022-10-13T17:39:25.231Z,100273.53
2022-10-13T17:42:30.110Z,100272.00
2022-10-13T17:45:33.912Z,100271.59
2022-10-13T17:48:40.084Z,100278.63
2022-10-13T17:51:44.764Z,100272.78
2022-10-13T17:54:50.003Z,100277.09
2022-10-13T17:57:53.406Z,100271.25
2022-10-13T18:01:12.570Z,100274.34
2022-10-13T18:04:18.895Z,100267.31
2022-10-13T18:07:22.250Z,100270.41
2022-10-13T18:10:25.926Z,100263.81
2022-10-13T18:13:31.177Z,100258.72
2022-10-13T18:16:35.125Z,100265.34
2022-10-13T18:19:40.553Z,100257.56
2022-10-13T18:22:44.278Z,100261.44
2022-10-13T18:25:49.043Z,100262.59
2022-10-13T18:28:53.937Z,100260.63
2022-10-13T18:31:57.339Z,100262.16
2022-10-13T18:35:00.623Z,100255.13
2022-10-13T18:38:04.186Z,100253.19
2022-10-13T18:41:09.781Z,100255.13
2022-10-13T18:44:14.548Z,100249.28
2022-10-13T18:47:18.361Z,100250.09
2022-10-13T18:50:21.954Z,100253.22
2022-10-13T18:53:25.663Z,100248.13
2022-10-13T18:56:30.684Z,100247.34
2022-10-13T18:59:39.125Z,100250.47
2022-10-13T19:02:42.771Z,100246.91
2022-10-13T19:05:49.312Z,100245.69
2022-10-13T19:08:59.544Z,100246.44
2022-10-13T19:12:02.838Z,100249.53
2022-10-13T19:15:06.844Z,100242.88
2022-10-13T19:18:10.435Z,100243.56
2022-10-13T19:21:15.515Z,100244.75
2022-10-13T19:24:20.602Z,100245.47
2022-10-13T19:27:24.069Z,100243.13
2022-10-13T19:30:27.701Z,100246.97
2022-10-13T19:33:31.611Z,100245.38
2022-10-13T19:36:39.386Z,100250.37
2022-10-13T19:39:42.692Z,100246.81
2022-10-13T19:42:46.223Z,100241.69
2022-10-13T19:45:58.805Z,100242.78
2022-10-13T19:49:05.237Z,100241.22
2022-10-13T19:52:09.611Z,100242.75
2022-10-13T19:55:14.493Z,100243.09
2022-10-13T19:58:18.126Z,100244.97
2022-10-13T20:01:22.276Z,100243.81
2022-10-13T20:04:25.746Z,100248.91
2022-10-13T20:07:28.833Z,100249.28
2022-10-13T20:10:32.196Z,100250.72
2022-10-13T20:13:35.720Z,100263.87
2022-10-13T20:16:39.089Z,100264.28
2022-10-13T20:19:43.499Z,100264.19
2022-10-13T20:22:47.147Z,100264.03
2022-10-13T20:25:49.988Z,100254.31
2022-10-13T20:28:54.626Z,100256.06
2022-10-13T20:31:57.473Z,100255.94
2022-10-13T20:35:00.472Z,100259.34
2022-10-13T20:38:03.531Z,100261.37
2022-10-13T20:41:15.435Z,100258.25
2022-10-13T20:44:18.201Z,100263.09
2022-10-13T20:47:21.521Z,100262.25
2022-10-13T20:50:24.455Z,100257.19
2022-10-13T20:53:27.759Z,100258.03
2022-10-13T20:56:33.472Z,100258.53
2022-10-13T20:59:36.674Z,100254.16
2022-10-13T21:02:39.383Z,100252.94
2022-10-13T21:05:42.348Z,100250.94
2022-10-13T21:08:46.503Z,100254.41
2022-10-13T21:11:49.587Z,100262.91
2022-10-13T21:14:53.610Z,100257.44
2022-10-13T21:17:56.735Z,100258.66
2022-10-13T21:21:10.901Z,100259.56
2022-10-13T21:24:15.185Z,100254.16
2022-10-13T21:27:18.514Z,100250.25
2022-10-13T21:30:21.719Z,100249.47
2022-10-13T21:33:24.786Z,100246.25
2022-10-13T21:36:33.269Z,100249.72
2022-10-13T21:39:36.174Z,100247.28
2022-10-13T21:42:39.894Z,100255.75
2022-10-13T21:45:42.719Z,100252.22
2022-10-13T21:48:46.985Z,100248.22
2022-10-13T21:51:49.815Z,100247.03
2022-10-13T21:54:53.346Z,100245.78
2022-10-13T21:57:59.629Z,100243.06
2022-10-13T22:01:08.104Z,100235.25
2022-10-13T22:04:13.403Z,100236.28
2022-10-13T22:07:16.096Z,100228.56
2022-10-13T22:10:19.285Z,100224.25
2022-10-13T22:13:22.005Z,100227.03
2022-10-13T22:16:31.324Z,100225.62
2022-10-13T22:19:34.559Z,100226.03
2022-10-13T22:22:37.895Z,100226.03
2022-10-13T22:25:47.486Z,100221.00
2022-10-13T22:28:51.860Z,100223.84
2022-10-13T22:31:58.671Z,100215.25
2022-10-13T22:35:02.194Z,100222.22
2022-10-13T22:38:04.935Z,100217.09
2022-10-13T22:41:08.414Z,100217.38
2022-10-13T22:44:11.229Z,100214.59
2022-10-13T22:47:14.253Z,100208.81
2022-10-13T22:50:18.457Z,100216.28
2022-10-13T22:53:22.911Z,100216.00
2022-10-13T22:56:28.122Z,100212.50
2022-10-13T22:59:31.438Z,100214.06
2022-10-13T23:02:34.933Z,100212.50
2022-10-13T23:05:41.250Z,100213.59
2022-10-13T23:08:44.129Z,100214.75
2022-10-13T23:11:47.523Z,100204.16
2022-10-13T23:14:53.729Z,100199.41
2022-10-13T23:17:56.762Z,100202.84
2022-10-13T23:20:59.511Z,100207.88
2022-10-13T23:24:06.565Z,100212.91
2022-10-13T23:27:09.282Z,100211.69
2022-10-13T23:30:12.981Z,100202.25
2022-10-13T23:33:15.711Z,100207.31
2022-10-13T23:36:24.713Z,100203.34
2022-10-13T23:39:29.752Z,100203.34
2022-10-13T23:42:32.806Z,100200.56
2022-10-13T23:45:35.510Z,100207.47
2022-10-13T23:48:40.089Z,100210.22
2022-10-13T23:51:43.641Z,100211.31
2022-10-13T23:54:46.621Z,100203.06
2022-10-13T23:57:49.989Z,100208.44
